createdAt,value
2024-02-08T10:35:22.630Z,99485.56
2024-02-08T10:40:31.442Z,99470.13
2024-02-08T10:45:45.432Z,99466.31
2024-02-08T10:50:51.090Z,99449.00
2024-02-08T10:55:57.307Z,99461.41
2024-02-08T11:01:14.346Z,99448.56
2024-02-08T11:06:30.695Z,99448.81
2024-02-08T11:11:33.623Z,99449.59
2024-02-08T11:16:39.032Z,99440.22
2024-02-08T11:21:45.290Z,99437.91
2024-02-08T11:26:55.932Z,99444.19
2024-02-08T11:31:57.756Z,99441.09
2024-02-08T11:37:00.821Z,99428.72
2024-02-08T11:42:17.354Z,99403.78
2024-02-08T11:47:24.732Z,99410.16
2024-02-08T11:52:26.696Z,99408.56
2024-02-08T11:57:37.942Z,99414.09
2024-02-08T12:02:40.207Z,99406.38
2024-02-08T12:07:46.688Z,99415.66
2024-02-08T12:12:54.121Z,99402.97
2024-02-08T12:18:08.710Z,99389.94
2024-02-08T12:23:10.360Z,99396.38
2024-02-08T12:28:12.716Z,99392.09
2024-02-08T12:33:14.471Z,99390.88
2024-02-08T12:38:18.772Z,99377.91
2024-02-08T12:43:20.950Z,99376.78
2024-02-08T12:48:25.420Z,99382.47
2024-02-08T12:53:26.925Z,99367.56
2024-02-08T12:58:29.636Z,99375.00
2024-02-08T13:03:38.461Z,99373.81
2024-02-08T13:08:46.288Z,99362.66
2024-02-08T13:13:49.504Z,99365.00
2024-02-08T13:18:55.997Z,99366.75
2024-02-08T13:23:58.049Z,99360.69
2024-02-08T13:29:01.117Z,99363.53
2024-02-08T13:34:03.209Z,99360.75
2024-02-08T13:39:05.154Z,99352.69
2024-02-08T13:44:06.793Z,99351.31
2024-02-08T13:49:08.907Z,99343.78
2024-02-08T13:54:13.853Z,99348.66
2024-02-08T13:59:15.993Z,99348.09
2024-02-08T14:04:22.226Z,99344.91
2024-02-08T14:09:26.498Z,99358.28
2024-02-08T14:14:41.290Z,99345.25
2024-02-08T14:19:45.152Z,99348.75
2024-02-08T14:24:52.791Z,99345.31
2024-02-08T14:29:54.277Z,99331.44
2024-02-08T14:34:59.992Z,99336.84
2024-02-08T14:40:02.249Z,99320.38
2024-02-08T14:45:13.029Z,99325.72
2024-02-08T14:50:34.981Z,99326.69
2024-02-08T14:55:36.829Z,99321.53
2024-02-08T15:00:38.347Z,99319.88
2024-02-08T15:05:49.789Z,99321.66
2024-02-08T15:11:26.913Z,99313.81
2024-02-08T15:16:34.405Z,99308.56
2024-02-08T15:21:36.779Z,99307.75
2024-02-08T15:26:39.214Z,99295.50
2024-02-08T15:31:46.786Z,99303.50
2024-02-08T15:36:50.000Z,99296.53
2024-02-08T15:41:53.335Z,99300.09
2024-02-08T15:46:58.104Z,99296.63
2024-02-08T15:51:59.653Z,99299.31
2024-02-08T15:57:08.927Z,99296.69
2024-02-08T16:02:17.916Z,99302.88
2024-02-08T16:07:29.268Z,99300.28
2024-02-08T16:12:31.109Z,99310.84
2024-02-08T16:17:32.798Z,99311.75
2024-02-08T16:22:54.128Z,99307.44
2024-02-08T16:28:01.472Z,99301.31
2024-02-08T16:33:10.284Z,99311.88
2024-02-08T16:38:17.947Z,99310.13
2024-02-08T16:43:29.605Z,99312.78
2024-02-08T16:48:45.953Z,99304.03
2024-02-08T16:54:02.614Z,99298.75
2024-02-08T16:59:10.908Z,99302.28
2024-02-08T17:04:13.936Z,99292.63
2024-02-08T17:09:15.467Z,99291.75
2024-02-08T17:14:34.199Z,99282.13
2024-02-08T17:19:36.025Z,99273.41
2024-02-08T17:24:43.176Z,99272.53
2024-02-08T17:29:52.050Z,99271.63
2024-02-08T17:34:54.135Z,99273.38
2024-02-08T17:39:57.573Z,99268.13
2024-02-08T17:45:02.064Z,99254.97
2024-02-08T17:50:07.329Z,99256.72
2024-02-08T17:55:09.241Z,99251.47
2024-02-08T18:00:13.701Z,99252.31
2024-02-08T18:05:16.002Z,99239.19
2024-02-08T18:10:18.607Z,99236.56
2024-02-08T18:15:25.433Z,99236.53
2024-02-08T18:20:31.372Z,99237.41
2024-02-08T18:25:33.820Z,99234.78
2024-02-08T18:30:36.837Z,99234.78
2024-02-08T18:35:38.859Z,99226.03
2024-02-08T18:40:40.706Z,99216.38
2024-02-08T18:45:50.027Z,99214.63
2024-02-08T18:50:52.037Z,99192.75
2024-02-08T18:55:59.995Z,99193.59
2024-02-08T19:01:01.799Z,99183.97
2024-02-08T19:06:03.421Z,99184.81
2024-02-08T19:11:05.200Z,99204.06
2024-02-08T19:16:09.351Z,99189.16
2024-02-08T19:21:15.396Z,99189.16
2024-02-08T19:26:26.226Z,99186.50
2024-02-08T19:31:31.453Z,99181.25
2024-02-08T19:36:33.694Z,99177.72
2024-02-08T19:41:35.273Z,99169.84
2024-02-08T19:46:39.899Z,99174.19
2024-02-08T19:51:46.245Z,99168.94
2024-02-08T19:56:49.237Z,99174.19
2024-02-08T20:01:50.850Z,99171.56
2024-02-08T20:06:56.047Z,99176.75
2024-02-08T20:11:59.756Z,99175.00
2024-02-08T20:17:03.747Z,99182.00
2024-02-08T20:22:13.254Z,99179.38
2024-02-08T20:27:15.760Z,99181.09
2024-02-08T20:32:21.129Z,99170.59
2024-02-08T20:37:25.913Z,99167.09
2024-02-08T20:42:30.047Z,99160.97
2024-02-08T20:47:31.552Z,99167.94
2024-02-08T20:52:33.913Z,99168.78
2024-02-08T20:57:41.196Z,99160.91
2024-02-08T21:02:42.635Z,99161.78
2024-02-08T21:07:48.248Z,99160.03
2024-02-08T21:12:49.761Z,99173.09
2024-02-08T21:17:51.298Z,99166.09
2024-02-08T21:22:53.144Z,99174.81
2024-02-08T21:27:54.815Z,99177.41
2024-02-08T21:32:56.636Z,99181.75
2024-02-08T21:38:00.318Z,99186.97
2024-02-08T21:43:11.563Z,99186.09
2024-02-08T21:48:17.406Z,99186.94
2024-02-08T21:53:21.730Z,99193.88
2024-02-08T21:58:24.308Z,99191.25
2024-02-08T22:03:28.368Z,99185.13
2024-02-08T22:08:30.320Z,99175.50
2024-02-08T22:13:32.029Z,99174.59
2024-02-08T22:18:33.690Z,99173.72
2024-02-08T22:23:37.860Z,99176.31
2024-02-08T22:28:41.722Z,99172.81
2024-02-08T22:33:43.827Z,99178.88
2024-02-08T22:38:46.918Z,99168.41
2024-02-08T22:43:48.524Z,99165.75
2024-02-08T22:48:50.089Z,99166.63
2024-02-08T22:53:51.892Z,99166.59
2024-02-08T22:58:53.428Z,99162.22
2024-02-08T23:03:56.715Z,99164.84
2024-02-08T23:09:08.784Z,99164.84
2024-02-08T23:14:12.318Z,99156.09
2024-02-08T23:19:14.737Z,99159.53
2024-02-08T23:24:19.854Z,99166.50
2024-02-08T23:29:26.089Z,99166.47
2024-02-08T23:34:27.889Z,99164.69
2024-02-08T23:39:29.664Z,99152.47
2024-02-08T23:44:31.244Z,99149.84
2024-02-08T23:49:36.044Z,99149.81
2024-02-08T23:54:37.653Z,99163.72
2024-02-08T23:59:39.313Z,99164.56
